Time;durP1;ratioP1;P1;durP2;ratioP2;P2;SDS_P1;SDS_P2;PMS_P1;PMS_P2;Temp;Humidity;BMP_temperature;BMP_pressure;BME280_temperature;BME280_humidity;BME280_pressure;Samples;Min_cycle;Max_cycle;Signal;HPM_P1;HPM_P2
2022/06/01 00:00:30;;;;;;;18.88;17.00;;;11.80;99.90;;;;;;5061423;28;20059;-54
2022/06/01 00:02:57;;;;;;;20.63;18.80;;;11.80;99.90;;;;;;5060538;28;20038;-54
2022/06/01 00:05:24;;;;;;;20.02;18.13;;;11.70;99.90;;;;;;5061642;28;20059;-51
2022/06/01 00:07:50;;;;;;;20.73;18.65;;;11.70;99.90;;;;;;5061796;28;20052;-58
2022/06/01 00:10:17;;;;;;;20.27;18.27;;;11.70;99.90;;;;;;5057390;28;20052;-59
2022/06/01 00:12:43;;;;;;;20.75;18.60;;;11.70;99.90;;;;;;5058960;28;20051;-50
2022/06/01 00:15:11;;;;;;;20.75;18.75;;;11.60;99.90;;;;;;5044077;28;20087;-59
2022/06/01 00:17:37;;;;;;;21.30;19.08;;;11.60;99.90;;;;;;5058846;28;20140;-59
2022/06/01 00:20:04;;;;;;;20.58;18.65;;;11.50;99.90;;;;;;5061426;28;20156;-59
2022/06/01 00:22:30;;;;;;;20.67;18.75;;;11.50;99.90;;;;;;5059559;28;20106;-58
2022/06/01 00:24:57;;;;;;;22.52;20.33;;;11.50;99.90;;;;;;5045203;28;20128;-59
2022/06/01 00:27:24;;;;;;;22.35;20.05;;;11.50;99.90;;;;;;5060854;28;20063;-59
2022/06/01 00:29:50;;;;;;;21.48;19.55;;;11.40;99.90;;;;;;5040643;28;20449;-59
2022/06/01 00:32:16;;;;;;;21.83;19.67;;;11.30;99.90;;;;;;5044581;28;20048;-59
2022/06/01 00:34:44;;;;;;;22.17;20.05;;;11.30;99.90;;;;;;5060965;28;20125;-59
2022/06/01 00:37:10;;;;;;;23.42;21.33;;;11.40;99.90;;;;;;5045680;28;20055;-59
2022/06/01 00:39:37;;;;;;;21.58;19.58;;;11.40;99.90;;;;;;5025536;28;20051;-59
2022/06/01 00:42:19;;;;;;;23.33;20.13;;;11.40;99.90;;;;;;5070422;28;20048;-58
2022/06/01 00:44:46;;;;;;;21.50;19.60;;;11.40;99.90;;;;;;5057844;28;20040;-60
2022/06/01 00:47:16;;;;;;;22.80;20.63;;;11.30;99.90;;;;;;5061010;28;20061;-52
2022/06/01 00:49:48;;;;;;;24.40;20.85;;;11.30;99.90;;;;;;5059821;28;20123;-52
2022/06/01 00:52:15;;;;;;;22.00;19.90;;;11.30;99.90;;;;;;5057290;28;20041;-54
2022/06/01 00:54:41;;;;;;;21.88;19.70;;;11.20;99.90;;;;;;5029668;28;20041;-52
2022/06/01 00:57:13;;;;;;;20.67;18.83;;;11.20;99.90;;;;;;5060168;28;20090;-53
2022/06/01 00:59:43;;;;;;;21.60;19.52;;;11.20;99.90;;;;;;5056896;28;20048;-52
2022/06/01 01:02:09;;;;;;;22.80;20.55;;;11.10;99.90;;;;;;5053216;28;20052;-50
2022/06/01 01:04:38;;;;;;;21.88;19.90;;;11.10;99.90;;;;;;5052801;28;20045;-49
2022/06/01 01:07:09;;;;;;;21.33;19.08;;;11.00;99.90;;;;;;5067657;28;20772;-53
2022/06/01 01:09:35;;;;;;;21.70;19.67;;;10.90;99.90;;;;;;5063047;28;20036;-50
2022/06/01 01:12:06;;;;;;;21.20;19.17;;;10.90;99.90;;;;;;5058825;28;20044;-52
2022/06/01 01:14:37;;;;;;;21.00;18.98;;;10.80;99.90;;;;;;5060211;28;20166;-53
2022/06/01 01:17:05;;;;;;;21.30;19.33;;;10.80;99.90;;;;;;5059611;28;20049;-51
2022/06/01 01:19:40;;;;;;;20.85;18.95;;;10.70;99.90;;;;;;5059236;28;20044;-49
2022/06/01 01:22:31;;;;;;;21.20;18.92;;;10.80;99.90;;;;;;5045924;28;20124;-50
2022/06/01 01:25:28;;;;;;;21.27;19.35;;;10.70;99.90;;;;;;5055313;28;20132;-54
2022/06/01 01:27:58;;;;;;;21.85;19.42;;;10.70;99.90;;;;;;5058557;28;20056;-55
2022/06/01 01:30:37;;;;;;;21.83;19.73;;;10.70;99.90;;;;;;5059316;28;20052;-55
2022/06/01 01:33:22;;;;;;;21.48;19.48;;;10.70;99.90;;;;;;5055959;28;20056;-53
2022/06/01 01:35:52;;;;;;;21.27;19.00;;;10.70;99.90;;;;;;5059046;28;20483;-52
2022/06/01 01:38:37;;;;;;;21.38;19.48;;;10.70;99.90;;;;;;5059369;28;20045;-53
2022/06/01 01:41:07;;;;;;;21.70;19.60;;;10.70;99.90;;;;;;5059081;28;20634;-53
2022/06/01 01:44:05;;;;;;;20.98;19.08;;;10.70;99.90;;;;;;5058416;28;20063;-50
2022/06/01 01:46:32;;;;;;;21.50;19.55;;;10.80;99.90;;;;;;5052823;28;20044;-52
2022/06/01 01:48:58;;;;;;;23.30;21.13;;;10.80;99.90;;;;;;5056504;28;20139;-54
2022/06/01 01:51:26;;;;;;;21.67;19.67;;;10.80;99.90;;;;;;5060891;28;20145;-53
2022/06/01 01:53:54;;;;;;;22.63;20.52;;;10.80;99.90;;;;;;5059387;28;20128;-52
2022/06/01 01:56:58;;;;;;;22.42;20.35;;;10.80;99.90;;;;;;5061187;28;20040;-53
2022/06/01 01:59:52;;;;;;;22.30;20.30;;;10.80;99.90;;;;;;5030915;28;20639;-53
2022/06/01 02:02:42;;;;;;;21.67;19.58;;;10.80;99.90;;;;;;5059633;28;20054;-51
2022/06/01 02:08:04;;;;;;;22.92;20.65;;;10.90;99.90;;;;;;5059624;28;20059;-53
2022/06/01 02:13:17;;;;;;;23.40;21.30;;;10.90;99.90;;;;;;5061842;28;20036;-58
2022/06/01 02:15:48;;;;;;;23.70;21.33;;;10.90;99.90;;;;;;5058269;28;20079;-58
2022/06/01 02:18:21;;;;;;;24.90;22.60;;;10.90;99.90;;;;;;5034307;28;20076;-53
2022/06/01 02:21:12;;;;;;;24.60;22.48;;;10.90;99.90;;;;;;5059458;28;20045;-53
2022/06/01 02:23:39;;;;;;;24.95;22.50;;;10.90;99.90;;;;;;5068231;28;20037;-52
2022/06/01 02:26:05;;;;;;;25.75;23.35;;;10.90;99.90;;;;;;5054128;28;20048;-54
2022/06/01 02:28:32;;;;;;;26.05;23.58;;;10.90;99.90;;;;;;5060793;28;20741;-58
2022/06/01 02:31:00;;;;;;;24.92;22.60;;;10.90;99.90;;;;;;5059622;28;20044;-58
2022/06/01 02:33:34;;;;;;;24.83;22.73;;;10.90;99.90;;;;;;5057033;28;20053;-59
2022/06/01 02:36:05;;;;;;;25.45;23.25;;;10.90;99.90;;;;;;5059261;28;20040;-58
2022/06/01 02:38:39;;;;;;;27.30;24.80;;;10.90;99.90;;;;;;5049902;28;20041;-58
2022/06/01 02:41:05;;;;;;;26.30;23.92;;;10.90;99.90;;;;;;5058089;28;20136;-57
2022/06/01 02:43:31;;;;;;;27.92;25.33;;;10.90;99.90;;;;;;5060479;28;20048;-59
2022/06/01 02:45:57;;;;;;;27.48;24.85;;;10.90;99.90;;;;;;5060782;28;20052;-58
2022/06/01 02:48:23;;;;;;;26.20;24.00;;;11.00;99.90;;;;;;5041200;28;20121;-59
2022/06/01 02:50:50;;;;;;;29.63;26.92;;;11.00;99.90;;;;;;5061845;28;20057;-59
2022/06/01 02:53:16;;;;;;;29.15;26.55;;;11.00;99.90;;;;;;5055551;28;20110;-59
2022/06/01 02:55:42;;;;;;;28.70;25.98;;;10.90;99.90;;;;;;5057234;28;20068;-59
2022/06/01 02:58:08;;;;;;;31.67;28.80;;;10.90;99.90;;;;;;5059727;28;20127;-58
2022/06/01 03:00:40;;;;;;;28.25;25.45;;;10.90;99.90;;;;;;5058714;28;20063;-52
2022/06/01 03:03:08;;;;;;;31.67;28.77;;;10.90;99.90;;;;;;5053519;28;20229;-55
2022/06/01 03:05:37;;;;;;;31.45;28.52;;;10.90;99.90;;;;;;5056814;28;20050;-53
2022/06/01 03:08:05;;;;;;;32.05;28.95;;;10.90;99.90;;;;;;5059148;28;20222;-53
2022/06/01 03:10:31;;;;;;;32.30;29.40;;;10.80;99.90;;;;;;5058841;28;20056;-55
2022/06/01 03:12:57;;;;;;;31.90;29.00;;;10.80;99.90;;;;;;5043608;28;20060;-53
2022/06/01 03:15:24;;;;;;;32.05;29.13;;;10.80;99.90;;;;;;5070404;28;20045;-53
2022/06/01 03:17:53;;;;;;;31.60;28.80;;;10.80;99.90;;;;;;5060460;28;20500;-54
2022/06/01 03:20:22;;;;;;;29.30;26.83;;;10.80;99.90;;;;;;5062032;28;20049;-53
2022/06/01 03:22:48;;;;;;;31.95;29.05;;;10.80;99.90;;;;;;5058137;28;20041;-58
2022/06/01 03:25:17;;;;;;;32.47;29.60;;;10.80;99.90;;;;;;5041552;28;20920;-54
2022/06/01 03:27:46;;;;;;;34.22;31.13;;;10.80;99.90;;;;;;5043073;28;20106;-58
2022/06/01 03:30:16;;;;;;;33.97;30.85;;;10.80;99.90;;;;;;5058709;28;20165;-59
2022/06/01 03:32:43;;;;;;;35.88;32.33;;;10.70;99.90;;;;;;5059476;28;20130;-59
2022/06/01 03:35:11;;;;;;;33.70;30.70;;;10.70;99.90;;;;;;5058516;28;20450;-55
2022/06/01 03:37:37;;;;;;;35.05;32.00;;;10.70;99.90;;;;;;5055168;28;20044;-59
2022/06/01 03:40:03;;;;;;;34.10;31.10;;;10.70;99.90;;;;;;5059183;28;20127;-59
2022/06/01 03:42:30;;;;;;;33.72;30.58;;;10.70;99.90;;;;;;5056373;28;20049;-58
2022/06/01 03:47:42;;;;;;;32.40;29.50;;;10.80;99.90;;;;;;5060563;28;20404;-59
2022/06/01 03:50:09;;;;;;;33.85;30.75;;;10.70;99.90;;;;;;5061010;28;20469;-58
2022/06/01 03:52:35;;;;;;;32.20;29.30;;;10.70;99.90;;;;;;5042874;28;20041;-58
2022/06/01 03:55:01;;;;;;;31.50;28.50;;;10.80;99.90;;;;;;5059547;28;20083;-59
2022/06/01 03:57:27;;;;;;;32.40;29.50;;;10.80;99.90;;;;;;5068577;28;20067;-59
2022/06/01 03:59:53;;;;;;;32.30;29.30;;;10.80;99.90;;;;;;5061281;28;20059;-59
2022/06/01 04:02:19;;;;;;;31.02;28.13;;;10.80;99.90;;;;;;5059151;28;20062;-59
2022/06/01 04:04:45;;;;;;;31.20;28.50;;;10.80;99.90;;;;;;5047255;28;20573;-59
2022/06/01 04:07:11;;;;;;;30.45;27.65;;;10.80;99.90;;;;;;5062116;28;20098;-58
2022/06/01 04:09:37;;;;;;;32.83;29.95;;;10.80;99.90;;;;;;5059135;28;20114;-57
2022/06/01 04:12:03;;;;;;;32.22;29.35;;;10.80;99.90;;;;;;5054384;28;20738;-59
2022/06/01 04:14:29;;;;;;;30.38;27.65;;;10.90;99.90;;;;;;5061765;28;20069;-59
2022/06/01 04:16:56;;;;;;;30.40;27.70;;;10.90;99.90;;;;;;5062142;28;20067;-59
2022/06/01 04:19:22;;;;;;;33.05;30.02;;;10.90;99.90;;;;;;5060263;28;20052;-59
2022/06/01 04:21:51;;;;;;;32.80;29.90;;;10.80;99.90;;;;;;5059945;28;20101;-58
2022/06/01 04:24:21;;;;;;;33.35;30.45;;;10.90;99.90;;;;;;5060057;28;20044;-59
2022/06/01 04:26:47;;;;;;;32.92;29.92;;;10.90;99.90;;;;;;5078115;28;20045;-59
2022/06/01 04:29:15;;;;;;;35.55;32.22;;;10.90;99.90;;;;;;5063857;28;20052;-59
2022/06/01 04:31:42;;;;;;;34.90;31.73;;;10.90;99.90;;;;;;5075334;28;20041;-51
2022/06/01 04:34:08;;;;;;;35.60;32.33;;;10.90;99.90;;;;;;5061774;28;20716;-59
2022/06/01 04:36:34;;;;;;;33.67;30.42;;;10.90;99.90;;;;;;5060511;28;20048;-59
2022/06/01 04:39:00;;;;;;;34.10;31.05;;;10.90;99.90;;;;;;5060417;28;20040;-59
2022/06/01 04:41:26;;;;;;;34.08;30.85;;;10.90;99.90;;;;;;5060277;28;20056;-59
2022/06/01 04:43:52;;;;;;;33.92;30.90;;;11.00;99.90;;;;;;5026230;28;20040;-59
2022/06/01 04:46:18;;;;;;;34.10;31.10;;;11.00;99.90;;;;;;5063452;28;20052;-59
2022/06/01 04:48:44;;;;;;;34.40;31.40;;;11.00;99.90;;;;;;5028558;28;20041;-59
2022/06/01 04:51:10;;;;;;;33.45;30.48;;;11.00;99.90;;;;;;5061492;28;20056;-58
2022/06/01 04:53:36;;;;;;;33.95;30.80;;;11.10;99.90;;;;;;5061972;28;20052;-59
2022/06/01 04:56:02;;;;;;;34.45;31.35;;;11.10;99.90;;;;;;5059458;28;20117;-59
2022/06/01 04:58:28;;;;;;;34.13;31.00;;;11.20;99.90;;;;;;5047002;28;20578;-59
2022/06/01 05:00:56;;;;;;;32.28;29.35;;;11.10;99.90;;;;;;5062995;28;20040;-59
2022/06/01 05:03:22;;;;;;;32.85;29.83;;;11.20;99.90;;;;;;5062650;28;20048;-60
2022/06/01 05:05:48;;;;;;;32.35;29.40;;;11.20;99.90;;;;;;5061247;28;20044;-59
2022/06/01 05:08:15;;;;;;;27.05;24.55;;;11.20;99.90;;;;;;5064553;28;20075;-57
2022/06/01 05:10:41;;;;;;;28.42;25.77;;;11.30;99.90;;;;;;5061171;28;20143;-59
2022/06/01 05:13:08;;;;;;;27.60;25.05;;;11.30;99.90;;;;;;5040115;28;20045;-59
2022/06/01 05:15:44;;;;;;;29.90;27.33;;;11.30;99.90;;;;;;5060132;28;20135;-59
2022/06/01 05:18:10;;;;;;;31.40;28.48;;;11.30;99.90;;;;;;5060544;28;20048;-59
2022/06/01 05:20:36;;;;;;;32.38;29.58;;;11.30;99.90;;;;;;5060770;28;20047;-51
2022/06/01 05:23:03;;;;;;;30.50;27.80;;;11.30;99.90;;;;;;5058999;28;20067;-53
2022/06/01 05:25:29;;;;;;;29.92;27.17;;;11.30;99.90;;;;;;5057593;28;20585;-49
2022/06/01 05:27:55;;;;;;;33.28;30.23;;;11.30;99.90;;;;;;5058608;28;20131;-49
2022/06/01 05:30:21;;;;;;;30.65;27.75;;;11.30;99.90;;;;;;5058888;28;20055;-53
2022/06/01 05:32:50;;;;;;;32.70;29.60;;;11.40;99.90;;;;;;5058779;28;20399;-53
2022/06/01 05:35:16;;;;;;;35.45;32.15;;;11.50;99.90;;;;;;5063104;28;20131;-54
2022/06/01 05:37:42;;;;;;;34.65;31.55;;;11.60;99.90;;;;;;5045191;28;20037;-59
2022/06/01 05:40:09;;;;;;;33.33;30.25;;;11.60;99.90;;;;;;5061654;28;20075;-59
2022/06/01 05:42:35;;;;;;;31.27;28.45;;;11.70;99.90;;;;;;5064284;28;20739;-54
2022/06/01 05:45:01;;;;;;;32.55;29.75;;;11.80;99.90;;;;;;5043166;28;20574;-51
2022/06/01 05:47:27;;;;;;;33.08;29.85;;;11.80;99.90;;;;;;5063935;28;20155;-53
2022/06/01 05:49:53;;;;;;;30.52;27.92;;;11.90;99.90;;;;;;5063395;28;20087;-59
2022/06/01 05:52:19;;;;;;;30.20;27.60;;;12.00;99.90;;;;;;5045766;28;20127;-55
2022/06/01 05:54:46;;;;;;;32.17;29.27;;;12.00;99.90;;;;;;5074199;28;20802;-56
2022/06/01 05:57:13;;;;;;;31.52;28.63;;;12.10;99.90;;;;;;5058784;28;20056;-58
2022/06/01 05:59:40;;;;;;;31.85;28.98;;;12.20;99.90;;;;;;5037360;28;20048;-54
2022/06/01 06:02:07;;;;;;;31.02;28.20;;;12.30;99.90;;;;;;5056961;28;20056;-58
2022/06/01 06:04:33;;;;;;;32.35;29.48;;;12.50;99.90;;;;;;5059520;28;20041;-56
2022/06/01 06:06:59;;;;;;;33.17;30.02;;;12.60;99.90;;;;;;5054301;28;20052;-54
2022/06/01 06:09:26;;;;;;;31.83;28.92;;;12.60;99.90;;;;;;5073959;28;20094;-54
2022/06/01 06:11:53;;;;;;;31.55;28.73;;;12.70;99.90;;;;;;5060932;28;20060;-58
2022/06/01 06:14:20;;;;;;;33.15;30.10;;;12.70;99.90;;;;;;5060193;28;20051;-59
2022/06/01 06:16:47;;;;;;;33.15;30.20;;;12.80;99.90;;;;;;5057579;28;20045;-51
2022/06/01 06:19:16;;;;;;;33.05;30.00;;;12.80;99.90;;;;;;5060859;28;20051;-58
2022/06/01 06:21:42;;;;;;;29.17;26.65;;;12.70;99.90;;;;;;5061231;28;20067;-59
2022/06/01 06:24:11;;;;;;;27.73;25.15;;;12.70;99.90;;;;;;5057535;28;20052;-57
2022/06/01 06:26:39;;;;;;;30.40;27.65;;;12.70;99.90;;;;;;5059021;28;20053;-59
2022/06/01 06:29:08;;;;;;;30.90;28.08;;;12.70;99.90;;;;;;5061396;28;20084;-50
2022/06/01 06:31:36;;;;;;;28.38;25.75;;;12.70;99.90;;;;;;5069864;28;20053;-49
2022/06/01 06:34:02;;;;;;;28.90;26.17;;;12.80;99.90;;;;;;5053876;28;20056;-54
2022/06/01 06:36:29;;;;;;;28.80;26.20;;;12.80;99.90;;;;;;5039139;28;20105;-60
2022/06/01 06:38:55;;;;;;;27.42;25.13;;;12.90;99.90;;;;;;5058747;28;20523;-57
2022/06/01 06:41:21;;;;;;;25.92;23.58;;;12.80;99.90;;;;;;5058886;28;20044;-57
2022/06/01 06:43:48;;;;;;;25.35;23.17;;;12.90;99.90;;;;;;5055060;28;20033;-57
2022/06/01 06:46:17;;;;;;;26.15;23.75;;;12.90;99.90;;;;;;5040138;28;20057;-57
2022/06/01 06:48:45;;;;;;;23.58;21.50;;;12.90;99.90;;;;;;5055157;28;20056;-53
2022/06/01 06:51:12;;;;;;;25.25;23.13;;;12.90;99.90;;;;;;5056947;28;20045;-51
2022/06/01 06:53:39;;;;;;;23.15;21.05;;;12.90;99.90;;;;;;5055142;28;20048;-58
2022/06/01 06:56:05;;;;;;;23.02;20.85;;;13.00;99.90;;;;;;5054677;28;20084;-53
2022/06/01 06:58:32;;;;;;;23.10;21.08;;;13.10;99.90;;;;;;5056389;28;20185;-58
2022/06/01 07:00:58;;;;;;;23.25;21.05;;;13.30;99.90;;;;;;5054102;28;20044;-54
2022/06/01 07:03:24;;;;;;;28.25;25.58;;;13.40;99.90;;;;;;5060346;28;20159;-54
2022/06/01 07:06:11;;;;;;;22.58;20.65;;;13.40;99.90;;;;;;5058566;28;20177;-53
2022/06/01 07:08:40;;;;;;;20.27;18.45;;;13.40;99.90;;;;;;5060071;28;20045;-54
2022/06/01 07:11:07;;;;;;;21.63;19.65;;;13.90;99.90;;;;;;5058910;28;20057;-54
2022/06/01 07:13:35;;;;;;;19.33;17.63;;;14.50;99.90;;;;;;5043189;28;20095;-59
2022/06/01 07:16:13;;;;;;;16.77;15.23;;;15.20;99.90;;;;;;5059220;28;20076;-58
2022/06/01 07:18:44;;;;;;;15.02;13.73;;;15.30;99.90;;;;;;5056971;28;20056;-59
2022/06/01 07:21:10;;;;;;;15.18;13.77;;;15.70;99.90;;;;;;5056232;28;20048;-54
2022/06/01 07:23:37;;;;;;;16.80;15.30;;;16.20;99.90;;;;;;5058791;28;20044;-53
2022/06/01 07:26:07;;;;;;;16.48;15.07;;;16.60;99.90;;;;;;5045951;28;20045;-54
2022/06/01 07:28:33;;;;;;;15.95;14.65;;;16.80;99.90;;;;;;5063922;28;20123;-54
2022/06/01 07:30:59;;;;;;;18.17;16.48;;;16.70;99.90;;;;;;5064048;28;20052;-54
2022/06/01 07:33:28;;;;;;;15.00;13.70;;;16.40;99.90;;;;;;5060458;28;20061;-53
2022/06/01 07:35:55;;;;;;;14.52;13.23;;;16.30;99.90;;;;;;5064552;28;20575;-54
2022/06/01 07:43:56;;;;;;;14.73;13.43;;;16.20;99.90;;;;;;5063144;28;20040;-49
2022/06/01 07:46:22;;;;;;;10.95;9.95;;;16.20;99.90;;;;;;5065618;28;20258;-51
2022/06/01 07:48:49;;;;;;;12.35;11.20;;;15.80;99.90;;;;;;5062982;28;20109;-52
2022/06/01 07:51:17;;;;;;;12.60;11.30;;;15.70;99.90;;;;;;5064245;28;20048;-53
2022/06/01 07:53:43;;;;;;;12.00;10.85;;;15.20;99.90;;;;;;5064185;28;20915;-53
2022/06/01 07:56:09;;;;;;;13.45;12.15;;;14.90;99.90;;;;;;5042460;28;20053;-52
2022/06/01 07:58:36;;;;;;;14.23;12.82;;;14.60;99.90;;;;;;5047038;28;20059;-49
2022/06/01 08:01:03;;;;;;;16.27;14.77;;;14.40;99.90;;;;;;5063685;28;20666;-49
2022/06/01 08:03:30;;;;;;;19.85;17.95;;;14.10;99.90;;;;;;5046992;28;20072;-52
2022/06/01 08:05:56;;;;;;;12.73;9.85;;;13.80;99.90;;;;;;5062416;28;20102;-56
2022/06/01 08:08:22;;;;;;;6.32;4.50;;;13.50;99.90;;;;;;5064699;28;20049;-59
2022/06/01 08:10:49;;;;;;;6.20;3.47;;;13.10;99.90;;;;;;5062330;28;20471;-61
2022/06/01 08:13:16;;;;;;;7.97;4.97;;;12.70;99.90;;;;;;5054773;28;20050;-61
2022/06/01 08:15:48;;;;;;;7.90;5.90;;;12.40;99.90;;;;;;5045712;28;20055;-61
2022/06/01 08:18:17;;;;;;;9.27;6.93;;;12.20;99.90;;;;;;5046963;28;20052;-60
2022/06/01 08:20:45;;;;;;;7.85;6.68;;;12.20;99.90;;;;;;5031172;28;20040;-60
2022/06/01 08:23:11;;;;;;;8.02;6.82;;;12.10;99.90;;;;;;5064501;28;20048;-57
2022/06/01 08:25:39;;;;;;;7.75;6.95;;;12.10;99.90;;;;;;5062529;28;20040;-57
2022/06/01 08:28:05;;;;;;;7.88;6.88;;;12.20;99.90;;;;;;5063933;28;20703;-57
2022/06/01 08:30:33;;;;;;;9.73;7.25;;;12.30;99.90;;;;;;5062176;28;20147;-57
2022/06/01 08:33:00;;;;;;;7.80;6.50;;;12.40;99.90;;;;;;5061082;28;20056;-57
2022/06/01 08:35:29;;;;;;;10.40;5.65;;;12.50;99.90;;;;;;5060842;28;20076;-55
2022/06/01 08:37:57;;;;;;;7.55;5.60;;;12.40;99.90;;;;;;5060473;28;20435;-56
2022/06/01 08:40:29;;;;;;;7.05;5.47;;;12.40;99.90;;;;;;5043935;28;20593;-58
2022/06/01 08:43:04;;;;;;;6.88;5.80;;;12.40;99.90;;;;;;5027660;28;20094;-58
2022/06/01 08:45:31;;;;;;;6.32;5.53;;;12.50;99.90;;;;;;5059786;28;20052;-59
2022/06/01 08:47:59;;;;;;;7.57;6.05;;;12.50;99.90;;;;;;5062761;28;20040;-58
2022/06/01 08:50:35;;;;;;;7.22;5.95;;;12.60;99.90;;;;;;5062143;28;20045;-58
2022/06/01 08:53:03;;;;;;;8.50;5.97;;;12.70;99.90;;;;;;5062053;28;20037;-58
2022/06/01 08:55:38;;;;;;;6.53;5.80;;;13.50;99.90;;;;;;5062566;28;20155;-58
2022/06/01 08:58:15;;;;;;;6.60;4.90;;;14.30;99.90;;;;;;5062978;28;20055;-58
2022/06/01 09:00:51;;;;;;;4.15;2.58;;;14.50;99.90;;;;;;5056774;28;20044;-58
2022/06/01 09:03:23;;;;;;;4.22;3.03;;;14.50;99.90;;;;;;5057094;28;20048;-58
2022/06/01 09:06:26;;;;;;;3.53;2.85;;;14.40;99.90;;;;;;5054500;28;20128;-57
2022/06/01 09:09:04;;;;;;;5.32;3.65;;;14.30;99.90;;;;;;4991467;28;20048;-55
2022/06/01 09:11:37;;;;;;;4.28;3.70;;;14.40;99.90;;;;;;5071999;28;20122;-56
2022/06/01 09:14:26;;;;;;;4.22;3.47;;;15.20;99.90;;;;;;5058565;28;20503;-57
2022/06/01 09:16:57;;;;;;;4.65;4.15;;;15.90;99.90;;;;;;5061761;28;20855;-57
2022/06/01 09:19:28;;;;;;;4.22;3.67;;;16.20;99.90;;;;;;5059533;28;20040;-57
2022/06/01 09:24:41;;;;;;;4.38;3.72;;;17.50;99.90;;;;;;5057885;28;20048;-57
2022/06/01 09:27:13;;;;;;;4.90;3.50;;;17.30;99.90;;;;;;5062401;28;20044;-57
2022/06/01 09:29:51;;;;;;;6.97;4.35;;;17.20;99.90;;;;;;5060478;28;20062;-57
2022/06/01 09:32:31;;;;;;;5.35;3.90;;;17.70;99.90;;;;;;5061343;28;20048;-57
2022/06/01 09:35:10;;;;;;;4.70;3.83;;;17.40;99.90;;;;;;5058756;28;20125;-58
2022/06/01 09:37:46;;;;;;;4.65;3.72;;;17.80;99.90;;;;;;5061406;28;20862;-57
2022/06/01 09:40:32;;;;;;;4.20;3.78;;;18.20;99.90;;;;;;5062150;28;20072;-57
2022/06/01 09:43:01;;;;;;;5.30;4.25;;;18.40;99.90;;;;;;5058935;28;20044;-57
2022/06/01 09:45:39;;;;;;;7.43;4.07;;;18.10;99.90;;;;;;5059976;28;20052;-57
2022/06/01 09:48:31;;;;;;;5.13;4.07;;;18.00;99.90;;;;;;5059383;28;20045;-57
2022/06/01 09:51:03;;;;;;;;;;;16.90;99.90;;;;;;5061032;28;20067;-57
2022/06/01 09:53:47;;;;;;;5.32;4.03;;;16.60;99.90;;;;;;5044539;28;19951;-58
2022/06/01 09:56:30;;;;;;;8.75;4.63;;;16.20;99.90;;;;;;5057538;28;20041;-58
2022/06/01 10:07:27;;;;;;;9.00;5.97;;;15.10;99.90;;;;;;5059277;28;20048;-57
2022/06/01 10:09:56;;;;;;;7.85;5.10;;;14.90;99.90;;;;;;5057333;28;20140;-57
2022/06/01 10:12:40;;;;;;;5.72;5.15;;;14.80;99.90;;;;;;5062357;28;20044;-58
2022/06/01 10:15:22;;;;;;;6.43;5.82;;;14.80;99.90;;;;;;5057419;28;20504;-58
2022/06/01 10:17:50;;;;;;;;;;;15.40;99.90;;;;;;5030359;28;20044;-57
2022/06/01 10:20:26;;;;;;;5.90;4.07;;;16.20;99.90;;;;;;5062201;28;19925;-59
2022/06/01 10:23:36;;;;;;;3.60;2.70;;;16.50;99.90;;;;;;5057311;28;20580;-59
2022/06/01 10:26:10;;;;;;;3.60;2.30;;;16.40;99.90;;;;;;5034104;28;20108;-59
2022/06/01 10:28:41;;;;;;;3.63;2.67;;;16.30;99.90;;;;;;5015602;28;20045;-58
2022/06/01 10:31:31;;;;;;;4.25;3.03;;;16.20;99.90;;;;;;5042651;28;20127;-59
2022/06/01 10:34:21;;;;;;;3.83;2.85;;;16.10;99.90;;;;;;5054546;28;20048;-58
2022/06/01 10:36:52;;;;;;;3.33;2.80;;;15.90;99.90;;;;;;5056854;28;20389;-58
2022/06/01 10:39:42;;;;;;;3.70;1.70;;;16.70;99.90;;;;;;5058278;28;20052;-59
2022/06/01 10:42:19;;;;;;;2.92;2.22;;;17.60;99.90;;;;;;5072143;28;20080;-57
2022/06/01 10:45:03;;;;;;;3.20;2.47;;;18.30;99.90;;;;;;5059614;28;20776;-55
2022/06/01 10:48:09;;;;;;;5.28;3.38;;;18.30;99.90;;;;;;5057244;28;20127;-57
2022/06/01 10:51:05;;;;;;;4.13;3.63;;;18.10;99.90;;;;;;5058813;28;20097;-57
2022/06/01 10:53:41;;;;;;;4.43;3.40;;;17.40;99.90;;;;;;5061023;28;20044;-57
2022/06/01 10:56:08;;;;;;;4.85;3.50;;;17.10;99.90;;;;;;5059561;28;20052;-55
2022/06/01 10:58:35;;;;;;;5.82;3.65;;;16.80;99.90;;;;;;5058627;28;20051;-57
2022/06/01 11:01:09;;;;;;;3.95;2.17;;;16.20;99.90;;;;;;5063103;28;20565;-57
2022/06/01 11:04:17;;;;;;;2.53;2.00;;;16.00;99.90;;;;;;5064506;28;20044;-57
2022/06/01 11:07:05;;;;;;;2.40;1.65;;;15.70;99.90;;;;;;5064393;28;20052;-58
2022/06/01 11:09:40;;;;;;;4.70;2.30;;;16.20;99.90;;;;;;5046730;28;20044;-59
2022/06/01 11:12:21;;;;;;;2.83;1.92;;;16.90;99.90;;;;;;5065899;28;20113;-58
2022/06/01 11:15:09;;;;;;;2.25;1.60;;;17.50;99.90;;;;;;5064298;28;20062;-55
2022/06/01 11:17:45;;;;;;;2.53;1.52;;;18.30;99.90;;;;;;5061281;28;20832;-56
2022/06/01 11:20:36;;;;;;;2.78;1.35;;;18.50;99.90;;;;;;5064476;28;20506;-57
2022/06/01 11:23:14;;;;;;;4.47;1.77;;;18.10;99.90;;;;;;5063205;28;20074;-56
2022/06/01 11:26:11;;;;;;;3.33;1.40;;;18.00;99.90;;;;;;5064349;28;20126;-57
2022/06/01 11:28:49;;;;;;;2.22;1.17;;;17.70;99.90;;;;;;5061562;28;20491;-56
2022/06/01 11:31:19;;;;;;;2.20;1.35;;;17.20;99.90;;;;;;5062172;28;20052;-57
2022/06/01 11:33:53;;;;;;;3.50;1.42;;;17.00;99.90;;;;;;5075832;28;20101;-56
2022/06/01 11:36:44;;;;;;;2.80;1.70;;;16.80;99.90;;;;;;5060010;28;20598;-56
2022/06/01 11:39:30;;;;;;;5.35;2.22;;;16.60;99.90;;;;;;5060152;28;20052;-57
2022/06/01 11:42:03;;;;;;;9.18;2.22;;;16.20;99.90;;;;;;5061949;28;20067;-57
2022/06/01 11:45:11;;;;;;;4.13;1.90;;;15.80;99.90;;;;;;5062286;28;20077;-57
2022/06/01 11:48:06;;;;;;;5.28;2.45;;;15.40;99.90;;;;;;5058080;28;20048;-57
2022/06/01 11:50:53;;;;;;;3.55;1.92;;;14.70;99.90;;;;;;5062798;28;20045;-57
2022/06/01 11:53:42;;;;;;;3.28;1.80;;;14.10;99.90;;;;;;5062001;28;20651;-59
2022/06/01 11:56:25;;;;;;;3.75;1.35;;;14.00;99.90;;;;;;5063513;28;20036;-59
2022/06/01 11:59:06;;;;;;;3.50;1.50;;;13.70;99.90;;;;;;5059541;28;20052;-58
2022/06/01 12:01:35;;;;;;;5.22;1.75;;;13.70;99.90;;;;;;5044621;28;20127;-58
2022/06/01 12:04:29;;;;;;;2.58;1.67;;;13.80;99.90;;;;;;5064250;28;20044;-58
2022/06/01 12:07:16;;;;;;;1.10;1.00;;;13.90;99.90;;;;;;5064023;28;20092;-58
2022/06/01 12:09:45;;;;;;;3.25;2.00;;;14.00;99.90;;;;;;5072556;28;20483;-57
2022/06/01 12:12:26;;;;;;;2.25;1.67;;;14.10;99.90;;;;;;5061307;28;20079;-57
2022/06/01 12:15:14;;;;;;;1.92;1.33;;;14.30;99.90;;;;;;5062255;28;20479;-57
2022/06/01 12:18:11;;;;;;;2.03;1.38;;;14.40;99.90;;;;;;5062178;28;20518;-57
2022/06/01 12:20:37;;;;;;;3.13;1.50;;;14.70;99.90;;;;;;5060900;28;20048;-57
2022/06/01 12:28:52;;;;;;;3.42;1.40;;;15.60;99.90;;;;;;5071632;28;20060;-59
2022/06/01 12:31:24;;;;;;;1.42;1.20;;;15.70;99.90;;;;;;5058396;28;20044;-59
2022/06/01 12:34:18;;;;;;;1.13;1.02;;;16.10;99.90;;;;;;5027146;28;20436;-56
2022/06/01 12:36:57;;;;;;;2.45;0.70;;;16.80;99.90;;;;;;5058634;28;20055;-58
2022/06/01 12:39:33;;;;;;;0.60;0.60;;;17.20;99.90;;;;;;5042246;28;20131;-55
2022/06/01 12:42:05;;;;;;;1.83;0.75;;;17.30;99.90;;;;;;5058387;28;20059;-56
2022/06/01 12:44:35;;;;;;;1.75;0.80;;;18.10;99.90;;;;;;5057499;28;20052;-55
2022/06/01 12:47:01;;;;;;;2.15;0.90;;;18.60;99.90;;;;;;5058778;28;20052;-56
2022/06/01 12:49:35;;;;;;;0.98;0.82;;;19.00;99.90;;;;;;5054750;28;20139;-57
2022/06/01 12:52:03;;;;;;;1.27;0.73;;;19.40;99.90;;;;;;5061574;28;20123;-57
2022/06/01 12:54:36;;;;;;;1.63;1.10;;;19.60;99.90;;;;;;5061404;28;20057;-57
2022/06/01 12:57:05;;;;;;;1.88;1.08;;;20.10;99.90;;;;;;5061844;28;20477;-56
2022/06/01 12:59:34;;;;;;;1.05;0.70;;;20.40;99.90;;;;;;5060715;28;20053;-57
2022/06/01 13:02:04;;;;;;;1.75;1.23;;;20.70;99.90;;;;;;5060594;28;20080;-57
2022/06/01 13:04:30;;;;;;;2.83;0.90;;;20.40;99.90;;;;;;5059542;28;20044;-58
2022/06/01 13:06:57;;;;;;;3.22;1.50;;;20.00;99.90;;;;;;5062989;28;20040;-58
2022/06/01 13:09:29;;;;;;;2.50;1.85;;;18.70;99.90;;;;;;5060724;28;20067;-58
2022/06/01 13:12:14;;;;;;;4.25;2.67;;;17.90;99.90;;;;;;5061190;28;20135;-57
2022/06/01 13:14:40;;;;;;;2.67;1.77;;;17.30;99.90;;;;;;5059730;28;20144;-57
2022/06/01 13:17:18;;;;;;;2.70;1.90;;;16.80;99.90;;;;;;5061972;28;20145;-57
2022/06/01 13:20:00;;;;;;;4.57;2.20;;;16.50;99.90;;;;;;5059886;28;20040;-57
2022/06/01 13:22:36;;;;;;;2.78;1.90;;;16.40;99.90;;;;;;5061131;28;20044;-58
2022/06/01 13:25:11;;;;;;;2.47;1.42;;;16.90;99.90;;;;;;5060543;28;20110;-57
2022/06/01 13:27:38;;;;;;;1.92;1.00;;;17.10;99.90;;;;;;5062995;28;20114;-57
2022/06/01 13:30:05;;;;;;;2.67;1.73;;;17.60;99.90;;;;;;5042947;28;20412;-58